Time;durP1;ratioP1;P1;durP2;ratioP2;P2;SDS_P1;SDS_P2;PMS_P1;PMS_P2;Temp;Humidity;BMP_temperature;BMP_pressure;BME280_temperature;BME280_humidity;BME280_pressure;Samples;Min_cycle;Max_cycle;Signal;HPM_P1;HPM_P2
2022/05/02 00:00:21;;;;;;;17.37;15.87;;;11.80;99.90;;;;;;6116804;23;20389;-87
2022/05/02 00:02:48;;;;;;;18.10;16.40;;;11.80;99.90;;;;;;6120172;23;20388;-87
2022/05/02 00:05:16;;;;;;;16.27;14.73;;;11.80;99.90;;;;;;6099648;23;20433;-87
2022/05/02 00:07:43;;;;;;;17.07;15.63;;;11.80;99.90;;;;;;6102846;23;20420;-87
2022/05/02 00:10:10;;;;;;;19.23;17.33;;;11.80;99.90;;;;;;6123871;23;20412;-87
2022/05/02 00:12:37;;;;;;;17.83;16.03;;;11.70;99.90;;;;;;6111863;23;20409;-88
2022/05/02 00:15:05;;;;;;;18.50;16.70;;;11.60;99.90;;;;;;6117682;23;20412;-87
2022/05/02 00:20:18;;;;;;;16.30;14.80;;;11.50;99.90;;;;;;6097465;23;20414;-88
2022/05/02 00:22:45;;;;;;;17.60;16.00;;;11.50;99.90;;;;;;6106900;23;20383;-87
2022/05/02 00:25:12;;;;;;;18.23;16.33;;;11.50;99.90;;;;;;6122567;23;20437;-87
2022/05/02 00:27:39;;;;;;;17.03;15.50;;;11.50;99.90;;;;;;6102754;23;20413;-87
2022/05/02 00:30:08;;;;;;;18.93;17.17;;;11.50;99.90;;;;;;6097363;23;20418;-87
2022/05/02 00:32:35;;;;;;;18.60;16.83;;;11.50;99.90;;;;;;6099213;23;20401;-87
2022/05/02 00:35:01;;;;;;;20.70;18.60;;;11.50;99.90;;;;;;6097995;23;20413;-87
2022/05/02 00:37:30;;;;;;;18.93;17.00;;;11.50;99.90;;;;;;6115147;23;20441;-88
2022/05/02 00:39:56;;;;;;;18.57;15.67;;;11.60;99.90;;;;;;6120497;23;20467;-88
2022/05/02 00:42:23;;;;;;;18.30;16.20;;;11.60;99.90;;;;;;6118604;23;20377;-87
2022/05/02 00:44:59;;;;;;;18.57;16.73;;;11.70;99.90;;;;;;6117799;23;20753;-88
2022/05/02 00:47:26;;;;;;;18.30;16.53;;;11.70;99.90;;;;;;6110450;23;20533;-88
2022/05/02 00:49:53;;;;;;;19.00;17.20;;;11.70;99.90;;;;;;6099584;23;20415;-88
2022/05/02 00:52:20;;;;;;;20.03;18.13;;;11.70;99.90;;;;;;6097421;23;20408;-87
2022/05/02 00:54:48;;;;;;;18.90;17.20;;;11.70;99.90;;;;;;6097083;23;20411;-87
2022/05/02 00:57:16;;;;;;;18.90;16.90;;;11.70;99.90;;;;;;6096327;23;20943;-87
2022/05/02 00:59:44;;;;;;;19.77;18.07;;;11.70;99.90;;;;;;6116754;23;20401;-87
2022/05/02 01:02:12;;;;;;;17.70;16.10;;;11.70;99.90;;;;;;6112959;23;20442;-87
2022/05/02 01:04:39;;;;;;;19.40;17.70;;;11.70;99.90;;;;;;6114951;23;20436;-87
2022/05/02 01:07:12;;;;;;;17.97;16.37;;;11.60;99.90;;;;;;6103106;23;20931;-87
2022/05/02 01:09:41;;;;;;;18.90;17.13;;;11.60;99.90;;;;;;6096533;23;20385;-88
2022/05/02 01:12:12;;;;;;;18.67;16.83;;;11.60;99.90;;;;;;6096228;23;20446;-88
2022/05/02 01:14:40;;;;;;;20.00;18.10;;;11.50;99.90;;;;;;6096267;23;20404;-87
2022/05/02 01:17:07;;;;;;;19.40;17.70;;;11.60;99.90;;;;;;6096122;23;20436;-87
2022/05/02 01:19:35;;;;;;;19.73;17.70;;;11.60;99.90;;;;;;6102968;23;20405;-88
2022/05/02 01:22:04;;;;;;;19.27;17.27;;;11.60;99.90;;;;;;6098083;23;20401;-87
2022/05/02 01:24:53;;;;;;;20.47;18.47;;;11.60;99.90;;;;;;6098301;23;20407;-87
2022/05/02 01:27:20;;;;;;;20.00;18.20;;;11.60;99.90;;;;;;6098176;23;20439;-87
2022/05/02 01:29:46;;;;;;;19.70;17.70;;;11.60;99.90;;;;;;6098657;23;20410;-88
2022/05/02 01:32:14;;;;;;;19.90;18.10;;;11.60;99.90;;;;;;6114745;23;20396;-88
2022/05/02 01:34:41;;;;;;;19.67;17.70;;;11.60;99.90;;;;;;6121118;23;20402;-87
2022/05/02 01:37:10;;;;;;;19.40;17.40;;;11.60;99.90;;;;;;6109413;23;20426;-87
2022/05/02 01:39:36;;;;;;;19.83;17.83;;;11.60;99.90;;;;;;6122882;23;20418;-87
2022/05/02 01:42:05;;;;;;;19.07;17.20;;;11.50;99.90;;;;;;6123314;23;20405;-87
2022/05/02 01:44:32;;;;;;;18.93;17.10;;;11.40;99.90;;;;;;6104298;23;20429;-87
2022/05/02 01:46:59;;;;;;;18.60;16.83;;;11.40;99.90;;;;;;6098055;23;20459;-87
2022/05/02 01:49:26;;;;;;;19.33;17.63;;;11.40;99.90;;;;;;6098107;23;20408;-87
2022/05/02 01:51:53;;;;;;;18.90;17.20;;;11.40;99.90;;;;;;6100314;23;20404;-87
2022/05/02 01:54:21;;;;;;;20.10;18.00;;;11.30;99.90;;;;;;6124546;23;20401;-87
2022/05/02 01:56:48;;;;;;;21.07;18.97;;;11.20;99.90;;;;;;6109814;23;20427;-87
2022/05/02 01:59:15;;;;;;;21.40;19.30;;;11.20;99.90;;;;;;6098633;23;20427;-87
2022/05/02 02:01:42;;;;;;;22.37;20.00;;;11.20;99.90;;;;;;6121659;23;20412;-87
2022/05/02 02:06:49;;;;;;;20.83;18.67;;;11.20;99.90;;;;;;6111850;23;20448;-88
2022/05/02 02:09:16;;;;;;;21.40;19.20;;;11.20;99.90;;;;;;6100412;23;20410;-87
2022/05/02 02:11:44;;;;;;;21.97;19.73;;;11.10;99.90;;;;;;6103118;23;20409;-88
2022/05/02 02:14:11;;;;;;;22.97;20.57;;;11.10;99.90;;;;;;6122553;23;20408;-87
2022/05/02 02:16:38;;;;;;;22.60;20.40;;;11.10;99.90;;;;;;6114250;23;20797;-87
2022/05/02 02:19:05;;;;;;;22.63;20.53;;;11.10;99.90;;;;;;6111568;23;20409;-87
2022/05/02 02:21:32;;;;;;;20.80;18.67;;;11.10;99.90;;;;;;6119495;23;20400;-87
2022/05/02 02:23:59;;;;;;;21.40;19.40;;;11.10;99.90;;;;;;6116556;23;20385;-88
2022/05/02 02:26:26;;;;;;;23.33;20.93;;;11.20;99.90;;;;;;6116121;23;20449;-88
2022/05/02 02:28:54;;;;;;;22.07;19.70;;;11.30;99.90;;;;;;6100571;23;20414;-88
2022/05/02 02:31:20;;;;;;;23.33;21.13;;;11.40;99.90;;;;;;6100161;23;20915;-87
2022/05/02 02:33:47;;;;;;;22.60;20.43;;;11.40;99.90;;;;;;6113820;23;20408;-87
2022/05/02 02:36:14;;;;;;;22.37;20.27;;;11.40;99.90;;;;;;6115734;23;20421;-87
2022/05/02 02:38:40;;;;;;;22.50;20.30;;;11.40;99.90;;;;;;6099069;23;20389;-87
2022/05/02 02:41:07;;;;;;;20.50;18.40;;;11.40;99.90;;;;;;6099023;23;20753;-87
2022/05/02 02:43:34;;;;;;;20.80;18.80;;;11.40;99.90;;;;;;6097432;23;20424;-87
2022/05/02 02:46:02;;;;;;;22.33;20.13;;;11.50;99.90;;;;;;6097365;23;20440;-87
2022/05/02 02:48:29;;;;;;;23.43;20.93;;;11.50;99.90;;;;;;6098135;23;20481;-88
2022/05/02 02:50:55;;;;;;;21.60;19.30;;;11.50;99.90;;;;;;6101594;23;20744;-87
2022/05/02 02:53:22;;;;;;;20.07;18.27;;;11.50;99.90;;;;;;6106300;23;20422;-88
2022/05/02 02:55:49;;;;;;;21.83;19.73;;;11.50;99.90;;;;;;6103640;23;20917;-88
2022/05/02 02:58:15;;;;;;;22.03;20.10;;;11.40;99.90;;;;;;6099022;23;20417;-87
2022/05/02 03:00:42;;;;;;;22.03;19.87;;;11.40;99.90;;;;;;6097482;23;20408;-88
2022/05/02 03:03:10;;;;;;;23.37;21.00;;;11.40;99.90;;;;;;6097102;23;20412;-87
2022/05/02 03:08:22;;;;;;;21.27;19.27;;;11.40;99.90;;;;;;6108315;23;20360;-87
2022/05/02 03:10:49;;;;;;;22.37;20.03;;;11.50;99.90;;;;;;6125197;23;20416;-87
2022/05/02 03:13:16;;;;;;;21.53;19.40;;;11.50;99.90;;;;;;6123406;23;20408;-88
2022/05/02 03:15:42;;;;;;;21.20;19.10;;;11.50;99.90;;;;;;6120092;23;20406;-88
2022/05/02 03:18:10;;;;;;;22.60;20.27;;;11.50;99.90;;;;;;6098463;23;20432;-87
2022/05/02 03:20:37;;;;;;;22.40;20.17;;;11.50;99.90;;;;;;6099210;23;20416;-87
2022/05/02 03:23:04;;;;;;;24.17;21.80;;;11.50;99.90;;;;;;6097502;23;20906;-88
2022/05/02 03:25:31;;;;;;;23.60;21.33;;;11.50;99.90;;;;;;6096817;23;20451;-88
2022/05/02 03:27:57;;;;;;;21.97;19.40;;;11.50;99.90;;;;;;6096769;23;20761;-88
2022/05/02 03:30:24;;;;;;;21.20;19.20;;;11.60;99.90;;;;;;6096990;23;20405;-89
2022/05/02 03:32:51;;;;;;;22.63;20.63;;;11.50;99.90;;;;;;6096998;23;20420;-87
2022/05/02 03:35:19;;;;;;;23.33;20.93;;;11.50;99.90;;;;;;6096801;23;20416;-88
2022/05/02 03:37:46;;;;;;;20.60;18.70;;;11.50;99.90;;;;;;6096043;23;20799;-88
2022/05/02 03:40:12;;;;;;;22.57;20.37;;;11.50;99.90;;;;;;6099935;23;20415;-88
2022/05/02 03:42:39;;;;;;;21.83;19.73;;;11.50;99.90;;;;;;6114285;23;20399;-88
2022/05/02 03:45:13;;;;;;;21.63;19.60;;;11.50;99.90;;;;;;6123092;23;20405;-88
2022/05/02 03:47:39;;;;;;;23.90;21.37;;;11.50;99.90;;;;;;6124670;23;20416;-88
2022/05/02 03:50:07;;;;;;;21.40;19.10;;;11.50;99.90;;;;;;6123848;23;20397;-89
2022/05/02 03:52:35;;;;;;;21.33;19.17;;;11.50;99.90;;;;;;6124147;23;20412;-88
2022/05/02 03:55:02;;;;;;;23.47;20.97;;;11.50;99.90;;;;;;6124111;23;20397;-89
2022/05/02 03:57:28;;;;;;;22.83;20.53;;;11.50;99.90;;;;;;6118254;23;20439;-88
2022/05/02 03:59:55;;;;;;;25.73;23.03;;;11.50;99.90;;;;;;6109949;23;20405;-86
2022/05/02 04:02:22;;;;;;;23.90;21.37;;;11.50;99.90;;;;;;6109458;23;20409;-88
2022/05/02 04:04:48;;;;;;;24.43;21.80;;;11.50;99.90;;;;;;6110479;23;20405;-86
2022/05/02 04:07:15;;;;;;;24.27;22.07;;;11.50;99.90;;;;;;6108072;23;20479;-86
2022/05/02 04:09:43;;;;;;;24.90;22.13;;;11.60;99.90;;;;;;6099661;23;20419;-86
2022/05/02 04:12:11;;;;;;;26.43;23.60;;;11.60;99.90;;;;;;6098706;23;20397;-87
2022/05/02 04:14:37;;;;;;;24.17;21.97;;;11.60;99.90;;;;;;6097686;23;20975;-87
2022/05/02 04:17:05;;;;;;;26.67;24.07;;;11.60;99.90;;;;;;6098196;23;20433;-86
2022/05/02 04:19:32;;;;;;;22.83;19.80;;;11.60;99.90;;;;;;6100579;23;20411;-87
2022/05/02 04:21:58;;;;;;;24.60;22.07;;;11.50;99.90;;;;;;6104228;23;20416;-86
2022/05/02 04:24:25;;;;;;;23.53;21.33;;;11.50;99.90;;;;;;6112204;23;20411;-85
2022/05/02 04:26:53;;;;;;;22.93;20.83;;;11.50;99.90;;;;;;6099935;23;20465;-85
2022/05/02 04:29:20;;;;;;;24.27;21.97;;;11.50;99.90;;;;;;6102502;23;20440;-86
2022/05/02 04:31:47;;;;;;;24.73;21.73;;;11.40;99.90;;;;;;6095406;23;20409;-86
2022/05/02 04:34:14;;;;;;;24.90;22.60;;;11.40;99.90;;;;;;6098543;23;20405;-86
2022/05/02 04:36:40;;;;;;;24.33;21.90;;;11.50;99.90;;;;;;6099657;23;20416;-81
2022/05/02 04:39:07;;;;;;;24.67;22.17;;;11.40;99.90;;;;;;6132267;23;20388;-83
2022/05/02 04:41:37;;;;;;;25.40;21.97;;;11.40;99.90;;;;;;6136882;23;20906;-85
2022/05/02 04:44:06;;;;;;;22.73;20.53;;;11.50;99.90;;;;;;6145558;23;20395;-83
2022/05/02 04:46:33;;;;;;;23.40;21.13;;;11.50;99.90;;;;;;6143511;23;20459;-82
2022/05/02 04:48:59;;;;;;;25.47;22.87;;;11.50;99.90;;;;;;6109367;23;20411;-81
2022/05/02 04:51:26;;;;;;;24.77;21.50;;;11.50;99.90;;;;;;6100506;23;20416;-82
2022/05/02 04:53:53;;;;;;;24.47;21.97;;;11.50;99.90;;;;;;6097208;23;20408;-83
2022/05/02 04:56:19;;;;;;;25.17;22.47;;;11.50;99.90;;;;;;6095814;23;20405;-82
2022/05/02 04:58:46;;;;;;;23.27;21.23;;;11.70;99.90;;;;;;6096351;23;20443;-82
2022/05/02 05:01:15;;;;;;;22.03;19.87;;;12.00;99.90;;;;;;6096931;23;20416;-81
2022/05/02 05:03:41;;;;;;;22.77;20.37;;;12.20;99.90;;;;;;6097273;23;20420;-82
2022/05/02 05:06:08;;;;;;;21.63;19.53;;;12.40;99.90;;;;;;6097479;23;20511;-82
2022/05/02 05:08:35;;;;;;;21.27;19.30;;;12.70;99.90;;;;;;6098520;23;20448;-83
2022/05/02 05:11:09;;;;;;;21.20;19.27;;;13.00;99.90;;;;;;6103358;23;20413;-81
2022/05/02 05:13:43;;;;;;;22.37;19.97;;;13.30;99.90;;;;;;6101846;23;20393;-83
2022/05/02 05:16:36;;;;;;;22.97;20.70;;;13.50;99.90;;;;;;6099217;23;20385;-83
2022/05/02 05:19:30;;;;;;;22.07;20.17;;;13.80;99.90;;;;;;6098935;23;20689;-83
2022/05/02 05:22:08;;;;;;;21.90;19.80;;;13.90;99.90;;;;;;6083719;23;20424;-84
2022/05/02 05:25:01;;;;;;;22.07;19.93;;;14.10;99.90;;;;;;6098375;23;20954;-83
2022/05/02 05:27:47;;;;;;;21.80;19.63;;;14.20;99.90;;;;;;6097947;23;20448;-83
2022/05/02 05:30:17;;;;;;;21.50;19.50;;;14.30;99.90;;;;;;6098003;23;20721;-83
2022/05/02 05:32:55;;;;;;;23.13;20.83;;;14.50;99.90;;;;;;6098578;23;20412;-83
2022/05/02 05:35:24;;;;;;;21.63;19.67;;;14.50;99.90;;;;;;6097645;23;20412;-84
2022/05/02 05:38:03;;;;;;;22.50;20.40;;;14.50;99.90;;;;;;6097952;23;20457;-82
2022/05/02 05:40:38;;;;;;;22.27;20.20;;;14.80;99.90;;;;;;6098454;23;20399;-82
2022/05/02 05:43:15;;;;;;;23.47;21.23;;;14.70;99.90;;;;;;6097163;23;20879;-83
2022/05/02 05:45:50;;;;;;;24.07;21.93;;;14.50;99.90;;;;;;6097226;23;20392;-82
2022/05/02 05:48:28;;;;;;;24.63;22.57;;;15.00;99.90;;;;;;6097675;23;20423;-82
2022/05/02 05:51:03;;;;;;;25.33;23.03;;;15.10;99.90;;;;;;6099119;23;20922;-82
2022/05/02 05:53:39;;;;;;;26.30;23.73;;;15.30;99.90;;;;;;6097727;23;20389;-81
2022/05/02 05:56:24;;;;;;;26.00;23.60;;;15.70;99.60;;;;;;6097790;23;20392;-82
2022/05/02 05:59:06;;;;;;;24.87;22.67;;;15.90;99.30;;;;;;6097338;23;20389;-82
2022/05/02 06:02:04;;;;;;;25.50;23.27;;;16.60;97.70;;;;;;6097311;23;20397;-83
2022/05/02 06:04:34;;;;;;;24.73;22.53;;;17.10;96.40;;;;;;6097490;23;20723;-82
2022/05/02 06:07:01;;;;;;;25.97;23.60;;;17.40;95.00;;;;;;6097097;23;20453;-83
2022/05/02 06:09:30;;;;;;;25.33;23.03;;;17.70;94.50;;;;;;6098943;23;20417;-82
2022/05/02 06:11:58;;;;;;;23.23;21.23;;;18.10;93.40;;;;;;6099158;23;20414;-82
2022/05/02 06:14:28;;;;;;;24.13;22.07;;;18.10;92.20;;;;;;6099011;23;20411;-82
2022/05/02 06:19:45;;;;;;;24.30;22.00;;;18.70;91.20;;;;;;6103162;23;20420;-81
2022/05/02 06:22:13;;;;;;;23.80;21.80;;;19.30;90.30;;;;;;6099800;23;20388;-82
2022/05/02 06:24:46;;;;;;;24.17;21.87;;;19.60;88.10;;;;;;6098922;23;20436;-82
2022/05/02 06:27:13;;;;;;;24.40;21.80;;;19.90;86.60;;;;;;6098582;23;20994;-82
2022/05/02 06:29:42;;;;;;;22.93;20.80;;;19.10;87.70;;;;;;6099013;23;20460;-82
2022/05/02 06:32:11;;;;;;;25.03;22.90;;;19.00;88.90;;;;;;6099404;23;20737;-82
2022/05/02 06:34:39;;;;;;;25.63;23.40;;;19.40;87.10;;;;;;6098665;23;20408;-82
2022/05/02 06:37:41;;;;;;;23.90;21.93;;;20.20;85.50;;;;;;6097890;23;20464;-83
2022/05/02 06:40:16;;;;;;;24.80;22.47;;;20.70;83.50;;;;;;6099649;23;20649;-82
2022/05/02 06:42:51;;;;;;;23.17;21.27;;;21.10;80.40;;;;;;6098859;23;20392;-82
2022/05/02 06:45:27;;;;;;;23.70;21.70;;;21.40;79.60;;;;;;6104173;23;20414;-82
2022/05/02 06:48:29;;;;;;;22.90;20.90;;;21.70;78.90;;;;;;6099086;23;20461;-83
2022/05/02 06:51:00;;;;;;;23.63;21.60;;;22.00;75.70;;;;;;6099359;23;20399;-83
2022/05/02 06:54:14;;;;;;;22.90;21.00;;;22.10;74.00;;;;;;6101797;23;20391;-82
2022/05/02 06:56:48;;;;;;;23.73;21.77;;;22.40;72.80;;;;;;6075008;23;20829;-82
2022/05/02 06:59:31;;;;;;;25.30;23.33;;;21.80;73.40;;;;;;6098560;23;20402;-82
2022/05/02 07:01:59;;;;;;;23.90;21.93;;;22.00;73.30;;;;;;6102943;23;20399;-82
2022/05/02 07:04:42;;;;;;;26.43;23.73;;;22.40;73.10;;;;;;6100253;23;20905;-83
2022/05/02 07:07:31;;;;;;;24.27;22.23;;;22.90;70.80;;;;;;6099806;23;20455;-83
2022/05/02 07:10:03;;;;;;;26.90;24.60;;;22.60;70.80;;;;;;6098131;23;20411;-83
2022/05/02 07:12:35;;;;;;;26.90;24.50;;;23.20;69.90;;;;;;6098128;23;20392;-83
2022/05/02 07:15:09;;;;;;;26.73;24.50;;;21.90;70.50;;;;;;6100424;23;20407;-83
2022/05/02 07:17:49;;;;;;;25.27;23.27;;;21.10;74.10;;;;;;6099144;23;20428;-82
2022/05/02 07:20:20;;;;;;;24.90;22.83;;;21.00;75.10;;;;;;6103478;23;20407;-82
2022/05/02 07:23:04;;;;;;;22.80;20.77;;;21.70;73.80;;;;;;6113079;23;20397;-83
2022/05/02 07:25:32;;;;;;;25.53;23.53;;;22.50;71.80;;;;;;6115952;23;20392;-85
2022/05/02 07:28:15;;;;;;;25.37;23.23;;;23.20;69.20;;;;;;6113385;23;20478;-83
2022/05/02 07:30:43;;;;;;;25.10;23.07;;;23.70;66.70;;;;;;6113173;23;20392;-83
2022/05/02 07:33:12;;;;;;;24.73;22.77;;;23.70;67.20;;;;;;6111838;23;21089;-84
2022/05/02 07:35:40;;;;;;;24.03;22.00;;;24.20;66.10;;;;;;6112644;23;20883;-83
2022/05/02 07:38:07;;;;;;;24.07;22.10;;;24.30;62.40;;;;;;6111393;23;20440;-83
2022/05/02 07:40:35;;;;;;;25.77;23.77;;;23.10;64.70;;;;;;6110583;23;20775;-83
2022/05/02 07:43:03;;;;;;;25.80;23.87;;;23.80;66.50;;;;;;6109889;23;20741;-84
2022/05/02 07:45:31;;;;;;;24.60;22.03;;;24.20;64.00;;;;;;6110983;23;20404;-84
2022/05/02 07:48:00;;;;;;;24.87;22.87;;;24.30;62.70;;;;;;6111502;23;20448;-84
2022/05/02 07:50:28;;;;;;;23.10;21.20;;;24.10;61.70;;;;;;6112733;23;20468;-84
2022/05/02 07:52:56;;;;;;;24.63;22.80;;;24.00;63.80;;;;;;6102371;23;20404;-81
2022/05/02 07:55:24;;;;;;;24.67;22.80;;;24.50;62.90;;;;;;6101188;23;20400;-81
2022/05/02 07:57:52;;;;;;;26.40;24.10;;;24.80;60.80;;;;;;6098715;23;21134;-84
2022/05/02 08:00:22;;;;;;;22.10;20.30;;;24.30;61.90;;;;;;6098763;23;20908;-83
2022/05/02 08:02:49;;;;;;;24.83;22.80;;;25.30;61.40;;;;;;6099838;23;20393;-82
2022/05/02 08:05:20;;;;;;;23.60;21.40;;;26.10;58.60;;;;;;6099609;23;20420;-81
2022/05/02 08:07:51;;;;;;;25.00;23.00;;;26.80;57.40;;;;;;6099319;23;20537;-85
2022/05/02 08:10:49;;;;;;;24.30;22.50;;;27.00;56.10;;;;;;6100238;23;20397;-81
2022/05/02 08:13:30;;;;;;;26.10;23.80;;;25.90;56.90;;;;;;6098733;23;20409;-81
2022/05/02 08:16:03;;;;;;;23.47;21.53;;;24.70;59.20;;;;;;6098448;23;20404;-81
2022/05/02 08:18:46;;;;;;;23.90;22.10;;;25.40;58.90;;;;;;6097864;23;20425;-81
2022/05/02 08:21:17;;;;;;;24.53;22.57;;;26.30;57.20;;;;;;6096798;23;20429;-86
2022/05/02 08:27:17;;;;;;;21.43;19.90;;;28.10;55.10;;;;;;6016406;23;20429;-81
2022/05/02 08:29:57;;;;;;;23.10;21.30;;;28.70;53.70;;;;;;6106529;23;20393;-81
2022/05/02 08:32:35;;;;;;;22.23;20.30;;;29.30;51.80;;;;;;6118972;23;20408;-80
2022/05/02 08:35:07;;;;;;;23.40;21.60;;;29.40;51.20;;;;;;6116600;23;20392;-80
2022/05/02 08:37:58;;;;;;;21.23;19.73;;;29.60;50.30;;;;;;6108498;23;20963;-83
2022/05/02 08:41:08;;;;;;;22.17;20.50;;;30.20;50.10;;;;;;6094514;23;20427;-80
2022/05/02 08:44:01;;;;;;;24.43;22.53;;;30.40;49.20;;;;;;6100510;23;20416;-81
2022/05/02 08:47:06;;;;;;;21.80;19.97;;;30.50;48.40;;;;;;6081615;23;20448;-82
2022/05/02 08:50:19;;;;;;;21.87;20.27;;;31.10;47.50;;;;;;6098716;23;20914;-82
2022/05/02 08:53:26;;;;;;;20.70;19.30;;;29.10;47.90;;;;;;6092856;23;20416;-81
2022/05/02 08:56:18;;;;;;;19.47;17.77;;;29.20;47.10;;;;;;6098744;23;20898;-81
2022/05/02 08:59:21;;;;;;;18.23;16.83;;;29.80;46.50;;;;;;6098981;23;20722;-81
2022/05/02 09:02:27;;;;;;;16.83;15.43;;;29.30;45.80;;;;;;6099511;23;20863;-82
2022/05/02 09:05:37;;;;;;;15.40;14.20;;;26.60;48.50;;;;;;6098326;23;20396;-80
2022/05/02 09:08:39;;;;;;;15.90;14.70;;;26.80;49.60;;;;;;6100231;23;20451;-80
2022/05/02 09:11:34;;;;;;;14.60;13.50;;;28.50;47.40;;;;;;6101727;23;20416;-83
2022/05/02 09:14:34;;;;;;;16.43;15.20;;;28.60;45.90;;;;;;6098758;23;20440;-83
2022/05/02 09:17:37;;;;;;;17.13;15.73;;;27.90;46.20;;;;;;6097780;23;20430;-82
2022/05/02 09:20:21;;;;;;;14.93;13.83;;;27.30;48.00;;;;;;6052795;23;20405;-82
2022/05/02 09:23:34;;;;;;;13.33;12.43;;;28.70;47.30;;;;;;6097813;23;20389;-82
2022/05/02 09:26:35;;;;;;;14.10;13.20;;;28.00;47.00;;;;;;6097256;23;20400;-82
2022/05/02 09:29:23;;;;;;;13.97;12.83;;;26.20;48.90;;;;;;6097523;23;20428;-82
2022/05/02 09:31:59;;;;;;;13.13;12.07;;;27.00;48.50;;;;;;6099226;23;20399;-81
2022/05/02 09:34:36;;;;;;;12.70;11.70;;;26.50;47.80;;;;;;6102374;23;20424;-83
2022/05/02 09:37:06;;;;;;;12.87;11.97;;;27.80;47.50;;;;;;6101598;23;20435;-81
2022/05/02 09:39:46;;;;;;;13.57;12.37;;;28.80;45.50;;;;;;6110383;23;20385;-80
2022/05/02 09:42:35;;;;;;;13.00;12.00;;;27.20;46.80;;;;;;6101610;23;20420;-81
2022/05/02 09:51:32;;;;;;;13.10;12.00;;;24.30;51.70;;;;;;6100647;23;20395;-80
2022/05/02 09:56:37;;;;;;;16.27;14.30;;;23.00;54.40;;;;;;6045421;23;21005;-83
2022/05/02 09:57:01;;;;;;;13.00;12.00;;;23.20;55.10;;;;;;6098670;23;20428;-84
2022/05/02 09:59:29;;;;;;;13.30;12.30;;;25.40;52.70;;;;;;6101810;23;20408;-83
2022/05/02 10:02:06;;;;;;;12.97;11.77;;;24.70;51.60;;;;;;6102088;23;20527;-85
2022/05/02 10:04:44;;;;;;;14.10;12.90;;;24.80;52.50;;;;;;6105625;23;20396;-83
2022/05/02 10:07:12;;;;;;;12.70;11.70;;;26.70;50.20;;;;;;6107433;23;20495;-83
2022/05/02 10:09:56;;;;;;;11.83;10.83;;;28.00;47.20;;;;;;6109165;23;20417;-83
2022/05/02 10:12:27;;;;;;;13.23;12.13;;;28.70;46.30;;;;;;6107120;23;20398;-84
2022/05/02 10:15:32;;;;;;;13.03;11.93;;;30.10;46.00;;;;;;6108622;23;20814;-84
2022/05/02 10:18:25;;;;;;;11.57;10.63;;;29.60;45.50;;;;;;6108354;23;20416;-83
2022/05/02 10:21:04;;;;;;;10.00;9.20;;;27.90;45.50;;;;;;6102705;23;20458;-84
2022/05/02 10:23:47;;;;;;;10.93;10.10;;;25.20;47.90;;;;;;6104729;23;20396;-83
2022/05/02 10:26:31;;;;;;;9.70;9.00;;;22.90;51.80;;;;;;6101111;23;20415;-84
2022/05/02 10:29:31;;;;;;;8.20;7.60;;;22.30;52.60;;;;;;6104965;23;20474;-82
2022/05/02 10:32:03;;;;;;;8.53;7.93;;;23.60;51.70;;;;;;6100885;23;20444;-82
2022/05/02 10:34:33;;;;;;;8.47;7.77;;;23.00;50.80;;;;;;6103886;23;20759;-83
2022/05/02 10:37:02;;;;;;;9.60;8.73;;;22.90;51.60;;;;;;6101156;23;20446;-84
2022/05/02 10:39:38;;;;;;;8.37;7.57;;;22.80;51.30;;;;;;6127865;23;20462;-85
2022/05/02 10:42:10;;;;;;;7.57;6.97;;;23.00;50.60;;;;;;6139901;23;20394;-85
2022/05/02 10:44:49;;;;;;;8.53;7.83;;;23.50;51.30;;;;;;6138729;23;20423;-84
2022/05/02 10:47:19;;;;;;;9.33;8.53;;;25.10;49.40;;;;;;6142054;23;20379;-84
2022/05/02 10:50:03;;;;;;;8.23;7.63;;;24.00;48.90;;;;;;6121597;23;20474;-84
2022/05/02 10:52:44;;;;;;;8.00;7.33;;;23.40;51.10;;;;;;6106522;23;20400;-85
2022/05/02 10:55:19;;;;;;;8.70;8.10;;;23.20;50.20;;;;;;6108911;23;20398;-85
2022/05/02 10:57:51;;;;;;;8.33;7.67;;;23.60;50.90;;;;;;6113362;23;20400;-85
2022/05/02 11:00:19;;;;;;;10.10;9.30;;;24.90;48.90;;;;;;6108525;23;20487;-84
2022/05/02 11:03:14;;;;;;;8.73;8.03;;;24.00;49.90;;;;;;6112534;23;20470;-84
2022/05/02 11:05:46;;;;;;;10.73;9.83;;;24.10;51.30;;;;;;6105035;23;20435;-84
2022/05/02 11:08:23;;;;;;;9.53;8.73;;;23.80;50.80;;;;;;6120436;23;20484;-84
2022/05/02 11:10:57;;;;;;;9.00;8.20;;;23.90;50.60;;;;;;6112932;23;20399;-85
2022/05/02 11:13:32;;;;;;;8.93;8.23;;;24.00;50.60;;;;;;6111494;23;20420;-84
2022/05/02 11:16:07;;;;;;;9.40;8.60;;;23.70;51.20;;;;;;6115008;23;20406;-85
2022/05/02 11:21:46;;;;;;;11.17;10.27;;;22.80;53.90;;;;;;6113869;23;20384;-84
2022/05/02 11:24:36;;;;;;;10.10;9.07;;;22.60;54.20;;;;;;6112673;23;20399;-86
2022/05/02 11:27:10;;;;;;;9.30;8.50;;;23.70;54.00;;;;;;6108678;23;20904;-85
2022/05/02 11:29:48;;;;;;;11.03;10.23;;;25.00;52.30;;;;;;6114578;23;20448;-85
2022/05/02 11:32:26;;;;;;;9.13;8.50;;;26.90;49.30;;;;;;6114518;23;20425;-85
2022/05/02 11:35:03;;;;;;;9.50;8.70;;;29.80;46.10;;;;;;6118370;23;20393;-86
2022/05/02 11:37:37;;;;;;;8.30;7.70;;;29.70;43.70;;;;;;6117798;23;20412;-86
2022/05/02 11:40:08;;;;;;;8.53;7.83;;;28.80;43.30;;;;;;6107397;23;20960;-85
2022/05/02 11:42:35;;;;;;;9.90;9.00;;;26.50;46.40;;;;;;6110567;23;20397;-85
2022/05/02 11:45:11;;;;;;;8.57;7.87;;;26.70;47.10;;;;;;6109307;23;20816;-84
2022/05/02 11:47:58;;;;;;;7.77;7.17;;;26.80;47.00;;;;;;6109756;23;20394;-86
2022/05/02 11:50:27;;;;;;;7.27;6.77;;;28.30;46.10;;;;;;6110155;23;20389;-84
2022/05/02 11:52:55;;;;;;;8.77;8.07;;;29.50;42.70;;;;;;6109910;23;20427;-84
2022/05/02 11:55:29;;;;;;;8.50;7.90;;;29.50;42.10;;;;;;6106613;23;20420;-85
2022/05/02 11:58:08;;;;;;;8.37;7.67;;;29.90;42.80;;;;;;6100881;23;20500;-85
2022/05/02 12:00:37;;;;;;;7.37;6.83;;;31.20;40.90;;;;;;6100694;23;20421;-85
2022/05/02 12:03:11;;;;;;;7.80;7.30;;;33.30;39.70;;;;;;6102590;23;20415;-85
2022/05/02 12:05:41;;;;;;;7.77;7.17;;;30.90;38.50;;;;;;6101184;23;20428;-85
2022/05/02 12:08:09;;;;;;;6.70;6.20;;;29.20;41.50;;;;;;6105514;23;20455;-86
2022/05/02 12:10:38;;;;;;;7.57;6.97;;;29.70;40.80;;;;;;6109345;23;20463;-85
2022/05/02 12:13:07;;;;;;;7.27;6.57;;;30.90;39.50;;;;;;6122607;23;20471;-87
2022/05/02 12:15:53;;;;;;;6.70;6.10;;;29.90;39.70;;;;;;6114582;23;20484;-85
2022/05/02 12:18:19;;;;;;;6.83;6.23;;;29.60;41.60;;;;;;6106970;23;20435;-84
2022/05/02 12:20:53;;;;;;;6.80;6.03;;;29.10;40.90;;;;;;6122064;23;20413;-83
2022/05/02 12:23:21;;;;;;;8.20;7.50;;;28.60;41.80;;;;;;6115622;23;20452;-83
2022/05/02 12:25:50;;;;;;;6.80;6.30;;;26.80;44.40;;;;;;6120014;23;20374;-83
2022/05/02 12:28:19;;;;;;;7.83;5.80;;;26.00;45.70;;;;;;6110665;23;20440;-84
2022/05/02 12:30:53;;;;;;;6.10;5.53;;;25.40;46.70;;;;;;6110488;23;20403;-83
2022/05/02 12:33:22;;;;;;;6.50;6.00;;;24.70;46.90;;;;;;6111333;23;20416;-83
2022/05/02 12:35:50;;;;;;;6.40;5.80;;;24.30;47.30;;;;;;6119917;23;20405;-83
2022/05/02 12:38:23;;;;;;;7.20;6.57;;;24.60;47.90;;;;;;6111718;23;20439;-83
2022/05/02 12:40:57;;;;;;;6.80;6.30;;;25.20;47.90;;;;;;6105260;23;20500;-84
2022/05/02 12:43:42;;;;;;;8.30;6.77;;;27.50;47.30;;;;;;6105190;23;20401;-83
2022/05/02 12:46:11;;;;;;;6.93;6.43;;;26.60;46.20;;;;;;6106514;23;20388;-84
2022/05/02 12:48:40;;;;;;;6.77;6.23;;;26.70;46.90;;;;;;6105475;23;20470;-84
2022/05/02 12:51:16;;;;;;;6.50;5.97;;;26.00;46.30;;;;;;6103348;23;20750;-83
2022/05/02 12:56:27;;;;;;;5.50;5.00;;;24.20;48.00;;;;;;6105742;23;20383;-85
2022/05/02 13:01:45;;;;;;;5.20;4.80;;;23.10;49.70;;;;;;6112977;23;20379;-84
2022/05/02 13:04:17;;;;;;;5.53;5.13;;;22.90;51.10;;;;;;6117071;23;20410;-82
2022/05/02 13:06:45;;;;;;;5.63;5.13;;;22.90;51.60;;;;;;6103068;23;20468;-83
2022/05/02 13:09:15;;;;;;;6.30;5.77;;;23.50;50.50;;;;;;6099841;23;20451;-84
2022/05/02 13:11:43;;;;;;;5.90;5.40;;;24.00;49.80;;;;;;6101529;23;20463;-83
2022/05/02 13:14:20;;;;;;;6.47;5.87;;;24.20;49.00;;;;;;6105116;23;20415;-83
2022/05/02 13:16:49;;;;;;;5.67;5.27;;;24.10;50.10;;;;;;6107179;23;20396;-81
2022/05/02 13:19:16;;;;;;;6.73;6.13;;;24.50;50.30;;;;;;6109823;23;20424;-82
2022/05/02 13:21:43;;;;;;;6.03;5.23;;;25.10;49.30;;;;;;6110734;23;20425;-82
2022/05/02 13:24:12;;;;;;;6.73;6.23;;;24.90;48.10;;;;;;6110683;23;20408;-81
2022/05/02 13:26:54;;;;;;;5.13;4.73;;;24.50;48.70;;;;;;6109653;23;20473;-83
2022/05/02 13:29:29;;;;;;;5.70;5.30;;;25.50;47.30;;;;;;6104131;23;20448;-85
2022/05/02 13:32:02;;;;;;;4.93;4.63;;;26.40;45.70;;;;;;6107433;23;20403;-85